< < Back
Terminal Aerodrome Forecast


Current Version              Previous Versions:   1  2  3  4  5  6  7  8  9  

Terminal Aerodrome Forecast

214
FTUS42 KMLB 181100 RRA
TAFDAB
TAF
KDAB 181141Z 1812/1912 00000KT P6SM SCT250
     FM181400 31003KT P6SM FEW020
     FM181600 06008KT P6SM SCT030
     FM182300 08005KT P6SM SCT035 SCT120
     FM190200 VRB03KT P6SM FEW030 BKN250=



Latest METAR

249
SAUS80 KWBC 181700
MTRDAB
METAR KDAB 181653Z 03006KT 10SM FEW035TCU SCT070 SCT250 31/22 A2993 RMK
AO2 SLP136 TCU OHD NW CB DSNT E T03110222


USA.gov is the U.S. government's official web portal to all federal, state and local government web resources and services.